N280GF VNKT-VNLK
Flight info
| Callsign | N280GF |
|---|---|
| Flight time | 0h 27m |
| Altitude | 11000 |
| Route | IGRIS1D KIMTI DCT VNPL |
| Aircraft | DHC6/L-SDFGR/C |
Departure
| Time | 2026-04-19 23:10 |
|---|---|
| Airport | Tribhuvan International Airport (VNKT) |
Arrival
| Time | 2026-04-19 23:38 |
|---|---|
| Airport | Tenzing-Hillary Airport (VNLK) |
| Time | Latitude | Longitude | Altitude | Speed | Heading |
|---|---|---|---|---|---|
| 2026-04-19 22:57 | 27.70114 | 85.35883 | 4372 ft | 0 kts | 292° |
| 2026-04-19 23:04 | 27.70106 | 85.35922 | 4420 ft | 13 kts | 263° |
| 2026-04-19 23:04 | 27.70108 | 85.35958 | 4420 ft | 9 kts | 40° |
| 2026-04-19 23:04 | 27.70172 | 85.35998 | 4411 ft | 11 kts | 19° |
| 2026-04-19 23:05 | 27.70143 | 85.36015 | 4423 ft | 9 kts | 188° |
| 2026-04-19 23:05 | 27.70066 | 85.35980 | 4417 ft | 15 kts | 204° |
| 2026-04-19 23:05 | 27.69960 | 85.35930 | 4414 ft | 18 kts | 193° |
| 2026-04-19 23:05 | 27.69833 | 85.35874 | 4364 ft | 21 kts | 205° |
| 2026-04-19 23:06 | 27.69694 | 85.35801 | 4358 ft | 23 kts | 196° |
| 2026-04-19 23:06 | 27.69537 | 85.35743 | 4355 ft | 24 kts | 203° |
| 2026-04-19 23:06 | 27.69425 | 85.35688 | 4351 ft | 15 kts | 203° |
| 2026-04-19 23:06 | 27.69315 | 85.35636 | 4348 ft | 19 kts | 202° |
| 2026-04-19 23:07 | 27.69196 | 85.35584 | 4340 ft | 14 kts | 201° |
| 2026-04-19 23:07 | 27.69135 | 85.35555 | 4341 ft | 7 kts | 203° |
| 2026-04-19 23:07 | 27.69119 | 85.35549 | 4340 ft | 0 kts | 191° |
| 2026-04-19 23:08 | 27.69105 | 85.35549 | 4338 ft | 5 kts | 172° |
| 2026-04-19 23:08 | 27.69093 | 85.35554 | 4339 ft | 0 kts | 151° |
| 2026-04-19 23:09 | 27.69089 | 85.35558 | 4339 ft | 3 kts | 136° |
| 2026-04-19 23:09 | 27.69073 | 85.35602 | 4339 ft | 10 kts | 78° |
| 2026-04-19 23:09 | 27.69226 | 85.35711 | 4342 ft | 53 kts | 22° |
| 2026-04-19 23:10 | 27.69725 | 85.35943 | 4379 ft | 98 kts | 21° |
| 2026-04-19 23:10 | 27.70426 | 85.36210 | 4645 ft | 111 kts | 20° |
| 2026-04-19 23:10 | 27.71139 | 85.36580 | 5011 ft | 114 kts | 25° |
| 2026-04-19 23:10 | 27.71858 | 85.36971 | 5398 ft | 115 kts | 25° |
| 2026-04-19 23:11 | 27.72580 | 85.37366 | 5794 ft | 116 kts | 25° |
| 2026-04-19 23:11 | 27.73303 | 85.37764 | 6177 ft | 116 kts | 25° |
| 2026-04-19 23:11 | 27.74030 | 85.38166 | 6540 ft | 117 kts | 25° |
| 2026-04-19 23:11 | 27.74758 | 85.38571 | 6872 ft | 117 kts | 24° |
| 2026-04-19 23:12 | 27.75447 | 85.39053 | 7213 ft | 121 kts | 52° |
| 2026-04-19 23:12 | 27.75713 | 85.39983 | 7457 ft | 129 kts | 71° |
| 2026-04-19 23:12 | 27.75933 | 85.40983 | 7750 ft | 133 kts | 85° |
| 2026-04-19 23:12 | 27.75572 | 85.41937 | 8036 ft | 137 kts | 132° |
| 2026-04-19 23:13 | 27.74969 | 85.42779 | 8351 ft | 138 kts | 128° |
| 2026-04-19 23:13 | 27.74362 | 85.43633 | 8660 ft | 141 kts | 129° |
| 2026-04-19 23:13 | 27.73737 | 85.44486 | 8972 ft | 142 kts | 135° |
| 2026-04-19 23:13 | 27.72972 | 85.45326 | 8974 ft | 166 kts | 137° |
| 2026-04-19 23:14 | 27.72096 | 85.46273 | 8981 ft | 180 kts | 137° |
| 2026-04-19 23:14 | 27.71199 | 85.47247 | 9178 ft | 179 kts | 137° |
| 2026-04-19 23:14 | 27.70188 | 85.47998 | 9370 ft | 173 kts | 164° |
| 2026-04-19 23:14 | 27.69041 | 85.48443 | 9558 ft | 175 kts | 164° |
| 2026-04-19 23:15 | 27.67892 | 85.48910 | 9744 ft | 176 kts | 164° |
| 2026-04-19 23:15 | 27.66735 | 85.49399 | 9924 ft | 179 kts | 159° |
| 2026-04-19 23:15 | 27.65722 | 85.50225 | 10084 ft | 180 kts | 143° |
| 2026-04-19 23:15 | 27.64806 | 85.51198 | 10248 ft | 182 kts | 134° |
| 2026-04-19 23:16 | 27.64014 | 85.52321 | 10405 ft | 185 kts | 126° |
| 2026-04-19 23:16 | 27.63356 | 85.53572 | 10573 ft | 186 kts | 117° |
| 2026-04-19 23:16 | 27.62846 | 85.54919 | 10730 ft | 186 kts | 109° |
| 2026-04-19 23:16 | 27.62469 | 85.56315 | 10902 ft | 186 kts | 106° |
| 2026-04-19 23:17 | 27.62079 | 85.57727 | 10980 ft | 194 kts | 107° |
| 2026-04-19 23:17 | 27.61679 | 85.59208 | 10986 ft | 199 kts | 106° |
| 2026-04-19 23:17 | 27.61278 | 85.60723 | 10992 ft | 204 kts | 106° |
| 2026-04-19 23:17 | 27.60871 | 85.62251 | 10989 ft | 207 kts | 106° |
| 2026-04-19 23:18 | 27.60452 | 85.63818 | 10988 ft | 210 kts | 106° |
| 2026-04-19 23:18 | 27.60033 | 85.65398 | 10984 ft | 211 kts | 106° |
| 2026-04-19 23:18 | 27.59609 | 85.66982 | 10985 ft | 211 kts | 106° |
| 2026-04-19 23:18 | 27.59168 | 85.68567 | 10981 ft | 212 kts | 109° |
| 2026-04-19 23:19 | 27.58628 | 85.70114 | 10987 ft | 214 kts | 114° |
| 2026-04-19 23:19 | 27.57981 | 85.71639 | 10972 ft | 215 kts | 117° |
| 2026-04-19 23:19 | 27.57315 | 85.73148 | 10975 ft | 215 kts | 117° |
| 2026-04-19 23:19 | 27.56650 | 85.74662 | 10969 ft | 216 kts | 117° |
| 2026-04-19 23:20 | 27.55987 | 85.76172 | 10974 ft | 214 kts | 117° |
| 2026-04-19 23:20 | 27.55320 | 85.77683 | 10956 ft | 219 kts | 117° |
| 2026-04-19 23:20 | 27.54647 | 85.79213 | 10961 ft | 218 kts | 117° |
| 2026-04-19 23:20 | 27.53976 | 85.80741 | 10959 ft | 217 kts | 117° |
| 2026-04-19 23:21 | 27.53314 | 85.82249 | 10955 ft | 213 kts | 117° |
| 2026-04-19 23:21 | 27.52665 | 85.83759 | 10958 ft | 214 kts | 114° |
| 2026-04-19 23:21 | 27.52117 | 85.85315 | 10950 ft | 212 kts | 110° |
| 2026-04-19 23:21 | 27.51679 | 85.86898 | 10962 ft | 212 kts | 104° |
| 2026-04-19 23:22 | 27.51442 | 85.87973 | 10960 ft | 214 kts | 101° |
| 2026-04-19 23:22 | 27.51177 | 85.89629 | 10960 ft | 216 kts | 97° |
| 2026-04-19 23:22 | 27.51018 | 85.91314 | 10958 ft | 216 kts | 92° |
| 2026-04-19 23:22 | 27.50935 | 85.93540 | 10957 ft | 215 kts | 89° |
| 2026-04-19 23:23 | 27.50870 | 85.95215 | 10962 ft | 213 kts | 90° |
| 2026-04-19 23:23 | 27.50804 | 85.96883 | 10960 ft | 213 kts | 90° |
| 2026-04-19 23:23 | 27.50739 | 85.98546 | 10957 ft | 212 kts | 90° |
| 2026-04-19 23:23 | 27.50701 | 85.99645 | 10958 ft | 211 kts | 89° |
| 2026-04-19 23:24 | 27.50642 | 86.01288 | 10961 ft | 209 kts | 90° |
| 2026-04-19 23:24 | 27.50583 | 86.02935 | 10952 ft | 213 kts | 90° |
| 2026-04-19 23:24 | 27.50516 | 86.04603 | 10963 ft | 214 kts | 90° |
| 2026-04-19 23:24 | 27.50451 | 86.06285 | 10952 ft | 215 kts | 90° |
| 2026-04-19 23:25 | 27.50389 | 86.07979 | 10957 ft | 212 kts | 90° |
| 2026-04-19 23:25 | 27.50326 | 86.09654 | 10954 ft | 211 kts | 90° |
| 2026-04-19 23:25 | 27.50263 | 86.11312 | 10958 ft | 212 kts | 90° |
| 2026-04-19 23:25 | 27.50199 | 86.12968 | 10940 ft | 208 kts | 90° |
| 2026-04-19 23:26 | 27.50137 | 86.14569 | 10972 ft | 206 kts | 90° |
| 2026-04-19 23:26 | 27.50076 | 86.16190 | 10972 ft | 209 kts | 90° |
| 2026-04-19 23:26 | 27.50013 | 86.17836 | 10973 ft | 211 kts | 90° |
| 2026-04-19 23:26 | 27.49949 | 86.19486 | 10974 ft | 211 kts | 90° |
| 2026-04-19 23:27 | 27.49886 | 86.21135 | 10973 ft | 212 kts | 90° |
| 2026-04-19 23:27 | 27.49821 | 86.22798 | 10970 ft | 212 kts | 90° |
| 2026-04-19 23:27 | 27.49755 | 86.24459 | 10980 ft | 212 kts | 91° |
| 2026-04-19 23:27 | 27.49691 | 86.26127 | 10974 ft | 213 kts | 91° |
| 2026-04-19 23:28 | 27.49722 | 86.27776 | 10965 ft | 209 kts | 83° |
| 2026-04-19 23:28 | 27.49827 | 86.29401 | 10978 ft | 209 kts | 84° |
| 2026-04-19 23:28 | 27.49911 | 86.31036 | 10978 ft | 209 kts | 84° |
| 2026-04-19 23:28 | 27.50003 | 86.32662 | 10983 ft | 207 kts | 84° |
| 2026-04-19 23:29 | 27.50096 | 86.34284 | 10988 ft | 207 kts | 83° |
| 2026-04-19 23:29 | 27.50191 | 86.35905 | 10991 ft | 209 kts | 83° |
| 2026-04-19 23:29 | 27.50284 | 86.37538 | 10986 ft | 209 kts | 84° |
| 2026-04-19 23:29 | 27.50375 | 86.39160 | 10986 ft | 210 kts | 84° |
| 2026-04-19 23:30 | 27.50466 | 86.40801 | 10974 ft | 212 kts | 84° |
| 2026-04-19 23:30 | 27.50657 | 86.42402 | 11134 ft | 193 kts | 62° |
| 2026-04-19 23:30 | 27.51250 | 86.43711 | 11360 ft | 191 kts | 59° |
| 2026-04-19 23:30 | 27.51523 | 86.45098 | 11782 ft | 183 kts | 89° |
| 2026-04-19 23:31 | 27.51193 | 86.46486 | 11951 ft | 183 kts | 108° |
| 2026-04-19 23:31 | 27.50756 | 86.47931 | 11499 ft | 208 kts | 106° |
| 2026-04-19 23:31 | 27.50517 | 86.49442 | 11761 ft | 191 kts | 96° |
| 2026-04-19 23:31 | 27.50451 | 86.50990 | 11719 ft | 198 kts | 80° |
| 2026-04-19 23:32 | 27.50906 | 86.52379 | 11798 ft | 180 kts | 57° |
| 2026-04-19 23:32 | 27.51493 | 86.53641 | 11818 ft | 185 kts | 55° |
| 2026-04-19 23:32 | 27.52200 | 86.54872 | 11962 ft | 185 kts | 49° |
| 2026-04-19 23:32 | 27.53001 | 86.55943 | 12144 ft | 176 kts | 40° |
| 2026-04-19 23:33 | 27.53900 | 86.56934 | 12115 ft | 184 kts | 36° |
| 2026-04-19 23:33 | 27.54790 | 86.57928 | 12317 ft | 179 kts | 45° |
| 2026-04-19 23:33 | 27.55488 | 86.59124 | 12391 ft | 187 kts | 53° |
| 2026-04-19 23:33 | 27.56193 | 86.60345 | 12571 ft | 184 kts | 52° |
| 2026-04-19 23:34 | 27.56883 | 86.61616 | 12537 ft | 195 kts | 54° |
| 2026-04-19 23:34 | 27.57572 | 86.62855 | 12898 ft | 176 kts | 47° |
| 2026-04-19 23:34 | 27.58376 | 86.63897 | 12826 ft | 183 kts | 43° |
| 2026-04-19 23:34 | 27.59217 | 86.65006 | 12685 ft | 187 kts | 46° |
| 2026-04-19 23:35 | 27.60032 | 86.66167 | 12601 ft | 184 kts | 47° |
| 2026-04-19 23:35 | 27.60799 | 86.67269 | 12508 ft | 180 kts | 40° |
| 2026-04-19 23:35 | 27.61828 | 86.68026 | 12552 ft | 159 kts | 23° |
| 2026-04-19 23:35 | 27.62775 | 86.68429 | 12444 ft | 159 kts | 18° |
| 2026-04-19 23:36 | 27.63758 | 86.68822 | 12268 ft | 137 kts | 15° |
| 2026-04-19 23:36 | 27.64607 | 86.69189 | 11740 ft | 131 kts | 15° |
| 2026-04-19 23:36 | 27.65519 | 86.69447 | 11256 ft | 137 kts | 21° |
| 2026-04-19 23:36 | 27.66259 | 86.70009 | 11003 ft | 119 kts | 27° |
| 2026-04-19 23:37 | 27.67002 | 86.70286 | 10483 ft | 115 kts | 31° |
| 2026-04-19 23:37 | 27.67543 | 86.71006 | 10004 ft | 118 kts | 43° |
| 2026-04-19 23:37 | 27.68025 | 86.71718 | 9486 ft | 110 kts | 57° |
| 2026-04-19 23:37 | 27.68410 | 86.72428 | 9116 ft | 92 kts | 56° |
| 2026-04-19 23:38 | 27.68691 | 86.72962 | 9288 ft | 59 kts | 60° |
| 2026-04-19 23:38 | 27.68776 | 86.73136 | 9383 ft | 4 kts | 82° |
| 2026-04-19 23:38 | 27.68758 | 86.73172 | 9384 ft | 7 kts | 183° |
| 2026-04-19 23:38 | 27.68749 | 86.73151 | 9381 ft | 1 kts | 325° |
| 2026-04-19 23:39 | 27.68755 | 86.73152 | 9383 ft | 1 kts | 50° |
| 2026-04-19 23:39 | 27.68755 | 86.73153 | 9383 ft | 0 kts | 50° |
| 2026-04-19 23:52 | 27.68765 | 86.73174 | 9379 ft | 0 kts | 106° |
| 2026-04-19 23:53 | 27.68754 | 86.73151 | 9381 ft | 0 kts | 60° |